Pineville, MO

12:40 PM CDT on August 22, 2014 (GMT -0500)
NW Arkansas Airport | Change Station
CLOSE
Current Station
Airport
Location: NW Arkansas Airport,
Elevation: 1286 ft
Nearby Weather Stations

Elev 1286 ft 36.28 °N, 94.31 °W | Updated 47 minutes ago

Clear
Clear
89 °F
Feels Like 95 °F
N
10
Wind Variable Wind from SW

Today
High -- | Low -- °F
--% Chance of Precip.
Yesterday
High -- | Low -- °F
Precip. -- in
6:40 AM 7:59 PM
Waning Crescent, 7% visible
Pressure 30.01 in
Visibility 10.0 miles
Clouds Clear
Heat Index 95 °F
Dew Point 71 °F
Humidity 55%
Rainfall 0.00 in
Snow Depth Not available.
UV 9 out of 12
Pollen 10.70 out of 12
Air Quality Not available.
Flu Activity Not available.
METAR KXNA 221653Z 22009KT 10SM CLR 32/22 A3006 RMK AO2 SLP160 T03170217

More Conditions Fewer Conditions

Pressure 30.01 in
Visibility 10.0 miles
Clouds Clear
Heat Index 95 °F
Dew Point 71 °F
Humidity 55%
Rainfall 0.00 in
Snow Depth Not available.
UV 9 out of 12
Pollen 10.70 out of 12
Air Quality Not available.
Flu Activity Not available.
METAR KXNA 221653Z 22009KT 10SM CLR 32/22 A3006 RMK AO2 SLP160 T03170217

More Conditions Fewer Conditions

10-Day Weather Forecast

Almanac

Astronomy

Aug. 22, 2014 Rise Set
Actual Time 6:40 AM CDT 7:59 PM CDT
Civil Twilight 6:13 AM CDT 8:26 PM CDT
Nautical Twilight 5:41 AM CDT 8:58 PM CDT
Astronomical Twilight 5:07 AM CDT 9:32 PM CDT
Moon 4:06 AM CDT 6:06 PM CDT
Length of Visible Light 14h 12m
Length of Day
13h 18m
Tomorrow will be 2m 8s shorter.
Waning Crescent, 7% of the Moon is Illuminated
Today
Waning Crescent
Aug 25
New
Sep 2
First Quarter
Sep 8
Full
Sep 15
Last Quarter

Today's Extremes

State Highs State Lows

Community

WunderPhotos

Upload Photos

1,746,206 photos uploaded!

WunderBlogs® & News

Nearby

Snow Depth

Station Depth Elevation
No new snow has been reported.

Earthquake Activity

City Distance Mag. Time & Date
No recent earthquake activity has been reported nearby.
Minimum magnitude displayed is 2.5.

Coastal Water Temperatures

Place Temperature
No Stations Reporting

Nearby Weather Stations